createdAt,value
2023-01-21T00:01:29.226Z,0.90
2023-01-21T00:05:41.486Z,1.30
2023-01-21T00:09:53.804Z,0.82
2023-01-21T00:14:06.088Z,1.08
2023-01-21T00:18:18.448Z,0.70
2023-01-21T00:22:31.806Z,0.85
2023-01-21T00:26:44.430Z,0.80
2023-01-21T00:31:01.270Z,0.90
2023-01-21T00:35:13.882Z,0.90
2023-01-21T00:39:26.273Z,0.90
2023-01-21T00:43:39.796Z,0.55
2023-01-21T00:47:52.191Z,0.70
2023-01-21T00:52:04.763Z,0.68
2023-01-21T00:56:17.111Z,0.70
2023-01-21T01:00:30.038Z,0.90
2023-01-21T01:04:42.840Z,0.75
2023-01-21T01:09:00.457Z,0.77
2023-01-21T01:13:13.974Z,0.70
2023-01-21T01:17:27.976Z,0.90
2023-01-21T01:21:47.632Z,1.00
2023-01-21T01:26:11.245Z,0.70
2023-01-21T01:30:23.609Z,0.60
2023-01-21T01:34:35.956Z,0.30
2023-01-21T01:38:48.318Z,0.73
2023-01-21T01:43:00.734Z,0.55
2023-01-21T01:47:13.895Z,0.50
2023-01-21T01:51:44.152Z,0.40
2023-01-21T01:55:57.388Z,0.30
2023-01-21T02:00:12.738Z,0.17
2023-01-21T02:04:31.222Z,0.40
2023-01-21T02:08:45.956Z,0.20
2023-01-21T02:12:58.551Z,0.20
2023-01-21T02:17:23.309Z,0.30
2023-01-21T02:21:48.607Z,0.30
2023-01-21T02:26:33.290Z,0.40
2023-01-21T02:31:09.832Z,0.57
2023-01-21T02:35:36.047Z,0.20
2023-01-21T02:39:59.839Z,0.57
2023-01-21T02:44:41.283Z,0.30
2023-01-21T02:49:32.673Z,0.50
2023-01-21T02:53:49.348Z,0.30
2023-01-21T02:58:10.821Z,0.35
2023-01-21T03:02:42.295Z,0.35
2023-01-21T03:07:20.898Z,0.30
2023-01-21T03:11:35.086Z,0.20
2023-01-21T03:16:14.974Z,0.25
2023-01-21T03:20:34.452Z,0.30
2023-01-21T03:24:51.424Z,0.10
2023-01-21T03:29:11.268Z,0.20
2023-01-21T03:33:24.848Z,0.25
2023-01-21T03:37:58.839Z,0.30
2023-01-21T03:42:11.663Z,0.20
2023-01-21T03:46:23.977Z,0.10
2023-01-21T03:50:44.969Z,0.30
2023-01-21T03:54:58.478Z,0.10
2023-01-21T03:59:11.162Z,0.20
2023-01-21T04:03:25.900Z,0.25
2023-01-21T04:07:38.299Z,0.20
2023-01-21T04:11:50.679Z,0.20
2023-01-21T04:16:03.369Z,0.40
2023-01-21T04:20:17.795Z,0.38
2023-01-21T04:24:33.752Z,0.20
2023-01-21T04:28:48.133Z,0.20
2023-01-21T04:33:01.744Z,0.30
2023-01-21T04:37:15.156Z,0.22
2023-01-21T04:41:27.613Z,0.40
2023-01-21T04:45:40.013Z,0.30
2023-01-21T04:49:53.049Z,0.40
2023-01-21T04:54:05.419Z,0.55
2023-01-21T04:58:17.930Z,0.50
2023-01-21T05:02:30.254Z,0.43
2023-01-21T05:06:42.607Z,0.30
2023-01-21T05:10:55.004Z,0.40
2023-01-21T05:15:07.802Z,0.52
2023-01-21T05:19:20.208Z,0.80
2023-01-21T05:23:32.838Z,0.55
2023-01-21T05:27:51.806Z,0.50
2023-01-21T05:32:04.246Z,0.65
2023-01-21T05:36:16.831Z,0.80
2023-01-21T05:40:29.369Z,0.77
2023-01-21T05:44:41.604Z,0.70
2023-01-21T05:48:53.981Z,0.82
2023-01-21T05:53:06.337Z,0.90
2023-01-21T05:57:18.699Z,0.90
2023-01-21T06:01:31.065Z,0.65
2023-01-21T06:05:43.665Z,0.70
2023-01-21T06:09:56.119Z,0.70
2023-01-21T06:14:08.541Z,0.75
2023-01-21T06:18:21.218Z,0.60
2023-01-21T06:22:34.289Z,0.90
2023-01-21T06:26:51.666Z,0.90
2023-01-21T06:31:04.313Z,0.93
2023-01-21T06:35:17.622Z,1.25
2023-01-21T06:39:30.162Z,0.93
2023-01-21T06:43:42.632Z,1.10
2023-01-21T06:47:55.149Z,0.90
2023-01-21T06:52:07.604Z,1.10
2023-01-21T06:56:20.384Z,1.23
2023-01-21T07:00:32.751Z,0.85
2023-01-21T07:04:45.662Z,1.00
2023-01-21T07:08:58.193Z,1.05
2023-01-21T07:13:10.576Z,1.20
2023-01-21T07:17:23.411Z,0.90
2023-01-21T07:21:35.812Z,1.13
2023-01-21T07:25:48.330Z,1.00
2023-01-21T07:30:01.021Z,0.82
2023-01-21T07:34:13.472Z,1.75
2023-01-21T07:38:25.922Z,1.73
2023-01-21T07:42:38.253Z,1.13
2023-01-21T07:46:53.136Z,1.58
2023-01-21T07:51:06.923Z,1.15
2023-01-21T07:55:19.677Z,1.20
2023-01-21T07:59:32.361Z,1.80
2023-01-21T08:03:44.884Z,3.10
2023-01-21T08:07:58.816Z,2.40
2023-01-21T08:12:12.843Z,1.65
2023-01-21T08:16:25.327Z,1.92
2023-01-21T08:20:37.712Z,1.50
2023-01-21T08:24:49.999Z,1.20
2023-01-21T08:29:03.540Z,1.25
2023-01-21T08:33:16.112Z,1.30
2023-01-21T08:37:28.520Z,1.30
2023-01-21T08:41:41.062Z,0.90
2023-01-21T08:45:56.960Z,0.93
2023-01-21T08:50:11.170Z,1.30
2023-01-21T08:54:23.511Z,1.20
2023-01-21T08:58:36.260Z,1.30
2023-01-21T09:02:51.796Z,0.98
2023-01-21T09:07:07.019Z,0.98
2023-01-21T09:11:21.026Z,1.10
2023-01-21T09:15:42.232Z,0.90
2023-01-21T09:19:55.604Z,1.00
2023-01-21T09:24:08.417Z,2.20
2023-01-21T09:28:22.149Z,1.30
2023-01-21T09:32:34.498Z,0.85
2023-01-21T09:36:46.885Z,0.80
2023-01-21T09:41:17.400Z,1.00
2023-01-21T09:45:30.397Z,1.55
2023-01-21T09:49:56.408Z,1.27
2023-01-21T09:54:40.062Z,1.20
2023-01-21T09:59:07.939Z,1.00
2023-01-21T10:03:41.043Z,1.17
2023-01-21T10:08:13.830Z,0.90
2023-01-21T10:12:44.712Z,1.20
2023-01-21T10:17:12.119Z,2.30
2023-01-21T10:21:37.086Z,1.60
2023-01-21T10:25:50.784Z,2.03
2023-01-21T10:30:20.224Z,2.00
2023-01-21T10:34:35.965Z,1.77
2023-01-21T10:39:15.934Z,4.40
2023-01-21T10:43:57.481Z,5.45
2023-01-21T10:48:33.196Z,3.08
2023-01-21T10:53:00.685Z,3.80
2023-01-21T10:57:45.665Z,2.65
2023-01-21T11:02:26.210Z,2.60
2023-01-21T11:06:41.214Z,3.72
2023-01-21T11:10:58.480Z,3.38
2023-01-21T11:15:17.704Z,2.47
2023-01-21T11:19:32.393Z,4.07
2023-01-21T11:23:55.159Z,2.58
2023-01-21T11:28:25.025Z,2.53
2023-01-21T11:32:37.643Z,1.90
2023-01-21T11:36:58.351Z,1.88
2023-01-21T11:41:11.193Z,2.90
2023-01-21T11:45:32.218Z,1.90
2023-01-21T11:49:48.539Z,1.63
2023-01-21T11:54:21.206Z,2.33
2023-01-21T11:58:36.537Z,2.90
2023-01-21T12:02:53.411Z,2.17
2023-01-21T12:07:07.857Z,7.18
2023-01-21T12:11:24.628Z,2.15
2023-01-21T12:16:05.022Z,2.30
2023-01-21T12:20:54.282Z,2.80
2023-01-21T12:25:24.753Z,2.30
2023-01-21T12:29:51.995Z,1.90
2023-01-21T12:34:13.109Z,2.47
2023-01-21T12:38:34.121Z,2.00
2023-01-21T12:42:54.556Z,1.65
2023-01-21T12:47:21.496Z,2.05
2023-01-21T12:52:05.587Z,1.75
2023-01-21T12:56:41.332Z,2.53
2023-01-21T13:00:55.655Z,2.00
2023-01-21T13:05:37.523Z,2.95
2023-01-21T13:10:17.555Z,2.38
2023-01-21T13:14:51.937Z,1.73
2023-01-21T13:19:04.848Z,1.95
2023-01-21T13:23:32.368Z,1.92
2023-01-21T13:28:01.403Z,1.30
2023-01-21T13:32:43.622Z,1.30
2023-01-21T13:37:20.780Z,1.10
2023-01-21T13:41:53.175Z,1.35
2023-01-21T13:46:11.853Z,1.00
2023-01-21T13:50:42.829Z,1.60
2023-01-21T13:55:10.095Z,1.65
2023-01-21T13:59:27.778Z,1.98
2023-01-21T14:03:47.671Z,1.35
2023-01-21T14:08:08.883Z,1.50
2023-01-21T14:12:36.929Z,0.93
2023-01-21T14:17:15.085Z,1.30
2023-01-21T14:22:02.945Z,1.50
2023-01-21T14:27:05.595Z,1.90
2023-01-21T14:31:22.972Z,1.30
2023-01-21T14:36:06.859Z,2.13
2023-01-21T14:40:24.295Z,1.75
2023-01-21T14:45:05.721Z,1.00
2023-01-21T14:49:42.020Z,1.17
2023-01-21T14:54:01.448Z,1.60
2023-01-21T14:58:25.123Z,1.30
2023-01-21T15:02:42.695Z,1.88
2023-01-21T15:07:03.385Z,2.55
2023-01-21T15:11:40.649Z,3.03
2023-01-21T15:16:30.028Z,3.92
2023-01-21T15:20:56.152Z,3.58
2023-01-21T15:25:14.629Z,4.35
2023-01-21T15:29:38.488Z,4.07
2023-01-21T15:33:58.080Z,4.20
2023-01-21T15:38:18.818Z,3.75
2023-01-21T15:42:34.033Z,4.28
2023-01-21T15:47:04.398Z,4.07
2023-01-21T15:51:48.612Z,5.00
2023-01-21T15:56:29.821Z,3.80
2023-01-21T16:00:57.514Z,3.58
2023-01-21T16:05:33.626Z,3.13
2023-01-21T16:10:09.240Z,2.40
2023-01-21T16:15:06.427Z,2.42
2023-01-21T16:19:33.113Z,3.97
2023-01-21T16:23:49.297Z,3.72
2023-01-21T16:28:01.698Z,3.95
2023-01-21T16:32:22.714Z,3.15
2023-01-21T16:36:39.398Z,2.83
2023-01-21T16:41:14.158Z,2.83
2023-01-21T16:45:27.415Z,3.10
2023-01-21T16:49:43.359Z,2.88
2023-01-21T16:54:20.767Z,2.65
2023-01-21T16:58:35.370Z,2.25
2023-01-21T17:02:49.694Z,2.30
2023-01-21T17:07:03.914Z,2.92
2023-01-21T17:11:18.575Z,2.83
2023-01-21T17:15:39.364Z,2.40
2023-01-21T17:19:52.074Z,3.10
2023-01-21T17:24:17.483Z,2.83
2023-01-21T17:28:44.756Z,2.88
2023-01-21T17:32:59.898Z,3.08
2023-01-21T17:37:44.869Z,2.05
2023-01-21T17:42:03.872Z,3.22
2023-01-21T17:46:22.807Z,3.60
2023-01-21T17:50:35.152Z,3.25
2023-01-21T17:54:49.284Z,2.75
2023-01-21T17:59:04.638Z,3.13
2023-01-21T18:03:19.118Z,2.35
2023-01-21T18:07:32.607Z,1.70
2023-01-21T18:11:45.694Z,1.60
2023-01-21T18:15:58.467Z,1.88
2023-01-21T18:20:24.131Z,1.92
2023-01-21T18:24:37.606Z,1.98
2023-01-21T18:28:50.924Z,2.92
2023-01-21T18:33:07.834Z,2.20
2023-01-21T18:37:21.117Z,2.88
2023-01-21T18:41:33.689Z,3.55
2023-01-21T18:45:46.330Z,3.50
2023-01-21T18:50:03.165Z,3.70
2023-01-21T18:54:19.114Z,4.70
2023-01-21T18:58:31.430Z,7.47
2023-01-21T19:02:44.752Z,4.45
2023-01-21T19:06:57.559Z,5.32
2023-01-21T19:11:14.321Z,5.10
2023-01-21T19:15:29.291Z,4.78
2023-01-21T19:19:44.922Z,4.13
2023-01-21T19:23:57.398Z,2.80
2023-01-21T19:28:12.808Z,4.00
2023-01-21T19:32:25.386Z,3.50
2023-01-21T19:36:39.415Z,3.42
2023-01-21T19:40:51.741Z,3.20
2023-01-21T19:45:04.390Z,3.05
2023-01-21T19:49:20.350Z,2.85
2023-01-21T19:53:32.880Z,2.58
2023-01-21T19:57:46.675Z,3.15
2023-01-21T20:01:59.257Z,3.05
2023-01-21T20:06:11.761Z,3.45
2023-01-21T20:10:27.445Z,2.95
2023-01-21T20:14:39.882Z,3.10
2023-01-21T20:18:52.258Z,2.95
2023-01-21T20:23:06.869Z,3.47
2023-01-21T20:27:19.456Z,2.97
2023-01-21T20:31:32.003Z,2.50
2023-01-21T20:35:53.708Z,2.58
2023-01-21T20:40:06.476Z,2.78
2023-01-21T20:44:18.978Z,2.78
2023-01-21T20:48:36.350Z,2.85
2023-01-21T20:52:50.071Z,4.57
2023-01-21T20:57:04.154Z,3.10
2023-01-21T21:01:18.727Z,2.85
2023-01-21T21:05:31.610Z,2.67
2023-01-21T21:09:48.793Z,2.70
2023-01-21T21:14:05.218Z,2.00
2023-01-21T21:18:20.910Z,2.30
2023-01-21T21:22:33.260Z,2.50
2023-01-21T21:26:46.218Z,2.65
2023-01-21T21:31:01.553Z,3.00
2023-01-21T21:35:35.930Z,2.60
2023-01-21T21:39:48.344Z,2.55
2023-01-21T21:44:01.027Z,2.13
2023-01-21T21:48:39.886Z,2.63
2023-01-21T21:52:52.296Z,2.38
2023-01-21T21:57:04.828Z,2.50
2023-01-21T22:01:18.592Z,2.22
2023-01-21T22:05:35.685Z,2.28
2023-01-21T22:09:48.372Z,2.38
2023-01-21T22:14:04.411Z,2.40
2023-01-21T22:18:16.963Z,1.73
2023-01-21T22:22:29.959Z,2.30
2023-01-21T22:26:42.240Z,2.60
2023-01-21T22:30:54.733Z,2.53
2023-01-21T22:35:07.611Z,2.28
2023-01-21T22:39:20.294Z,2.45
2023-01-21T22:43:34.143Z,2.47
2023-01-21T22:47:46.473Z,2.22
2023-01-21T22:51:58.921Z,2.33
2023-01-21T22:56:13.779Z,2.78
2023-01-21T23:00:38.478Z,2.80
2023-01-21T23:04:50.888Z,2.35
2023-01-21T23:09:03.927Z,2.58
2023-01-21T23:13:17.281Z,2.45
2023-01-21T23:17:29.725Z,2.50
2023-01-21T23:21:42.998Z,3.58
2023-01-21T23:25:56.847Z,2.97
2023-01-21T23:30:10.156Z,1.95
2023-01-21T23:34:23.970Z,2.15
2023-01-21T23:38:36.368Z,1.38
2023-01-21T23:42:49.272Z,1.52
2023-01-21T23:47:01.662Z,1.90
2023-01-21T23:51:15.457Z,1.48
2023-01-21T23:55:27.810Z,1.70
2023-01-21T23:59:40.399Z,1.38
